Saum, Minnesota
Current Conditions -  °F | °C
As of 2:09 PM on Sunday 21 Dec 2014 (Local Time) from KVWU Reporting Station
Overcast Overcast  
Wind Chill: 32°   Ceiling: 700
Heat Index: 32°   Visibility: 10mi
Dew Point: 30°   Wind: 0mph
Humidity: 93%   Direction: NA
Pressure: 29.66"   Gusts: NA
Location:  47.9599°N, 94.5642°W
Report Text: KVWU 212009Z AUTO 00000KT 10SM OVC007 00/M01 A2966 RMK AO2
Loading
Personal Weather Stations






























Interactive Weather Map New forecast layout! Learn more

10-Day Weather Forecast

Advertisements
Track Severe Weather on mobile